createdAt,value
2023-02-11T00:01:46.735Z,99359.53
2023-02-11T00:04:13.330Z,99356.50
2023-02-11T00:06:39.993Z,99352.38
2023-02-11T00:09:06.648Z,99343.38
2023-02-11T00:11:33.280Z,99343.41
2023-02-11T00:13:59.946Z,99343.22
2023-02-11T00:16:26.692Z,99344.53
2023-02-11T00:18:53.339Z,99336.34
2023-02-11T00:21:20.012Z,99345.75
2023-02-11T00:23:46.687Z,99335.97
2023-02-11T00:26:13.390Z,99335.75
2023-02-11T00:28:40.034Z,99335.88
2023-02-11T00:31:06.814Z,99333.66
2023-02-11T00:33:33.530Z,99326.44
2023-02-11T00:36:00.224Z,99332.19
2023-02-11T00:38:26.899Z,99328.28
2023-02-11T00:40:53.609Z,99332.72
2023-02-11T00:43:20.290Z,99334.72
2023-02-11T00:45:47.127Z,99328.88
2023-02-11T00:48:13.841Z,99322.97
2023-02-11T00:50:40.546Z,99319.94
2023-02-11T00:53:07.250Z,99325.56
2023-02-11T00:55:33.856Z,99321.13
2023-02-11T00:58:00.504Z,99314.16
2023-02-11T01:00:27.149Z,99314.34
2023-02-11T01:02:53.852Z,99304.78
2023-02-11T01:05:20.598Z,99300.31
2023-02-11T01:07:47.297Z,99297.56
2023-02-11T01:10:13.909Z,99293.91
2023-02-11T01:12:40.558Z,99295.88
2023-02-11T01:15:07.247Z,99288.06
2023-02-11T01:17:33.878Z,99281.72
2023-02-11T01:20:00.544Z,99277.72
2023-02-11T01:22:27.287Z,99274.13
2023-02-11T01:24:53.928Z,99270.50
2023-02-11T01:27:20.675Z,99271.41
2023-02-11T01:29:47.317Z,99269.03
2023-02-11T01:32:14.171Z,99260.75
2023-02-11T01:34:40.904Z,99257.69
2023-02-11T01:37:07.607Z,99254.66
2023-02-11T01:39:34.261Z,99248.53
2023-02-11T01:42:00.949Z,99248.22
2023-02-11T01:44:27.622Z,99241.94
2023-02-11T01:46:54.357Z,99241.09
2023-02-11T01:49:21.082Z,99239.34
2023-02-11T01:51:47.899Z,99231.44
2023-02-11T01:54:14.558Z,99230.81
2023-02-11T01:56:41.252Z,99233.88
2023-02-11T01:59:07.898Z,99231.16
2023-02-11T02:01:34.620Z,99230.38
2023-02-11T02:04:01.361Z,99238.59
2023-02-11T02:06:28.139Z,99226.75
2023-02-11T02:08:54.825Z,99226.56
2023-02-11T02:11:21.488Z,99219.97
2023-02-11T02:13:48.167Z,99227.50
2023-02-11T02:16:14.878Z,99227.84
2023-02-11T02:18:41.551Z,99231.50
2023-02-11T02:21:08.255Z,99221.31
2023-02-11T02:23:34.937Z,99222.91
2023-02-11T02:26:01.587Z,99216.28
2023-02-11T02:28:28.221Z,99213.94
2023-02-11T02:30:55.003Z,99214.75
2023-02-11T02:33:22.616Z,99210.00
2023-02-11T02:35:49.711Z,99204.41
2023-02-11T02:38:16.658Z,99201.03
2023-02-11T02:40:43.369Z,99196.53
2023-02-11T02:43:10.096Z,99210.16
2023-02-11T02:45:36.751Z,99194.22
2023-02-11T02:48:03.436Z,99200.53
2023-02-11T02:50:30.128Z,99198.97
2023-02-11T02:52:56.928Z,99190.53
2023-02-11T02:55:23.592Z,99192.31
2023-02-11T02:57:50.290Z,99188.19
2023-02-11T03:00:17.326Z,99180.84
2023-02-11T03:02:43.983Z,99185.59
2023-02-11T03:05:10.607Z,99184.91
2023-02-11T03:07:37.246Z,99187.53
2023-02-11T03:10:03.924Z,99184.22
2023-02-11T03:12:30.547Z,99189.50
2023-02-11T03:14:57.197Z,99186.41
2023-02-11T03:17:23.878Z,99179.78
2023-02-11T03:19:50.557Z,99185.44
2023-02-11T03:22:17.290Z,99172.03
2023-02-11T03:24:43.933Z,99176.22
2023-02-11T03:27:10.577Z,99185.31
2023-02-11T03:29:37.236Z,99174.69
2023-02-11T03:32:03.893Z,99174.69
2023-02-11T03:34:30.583Z,99170.88
2023-02-11T03:36:57.270Z,99165.53
2023-02-11T03:39:24.054Z,99171.22
2023-02-11T03:41:50.767Z,99169.91
2023-02-11T03:44:17.405Z,99157.81
2023-02-11T03:46:44.071Z,99161.09
2023-02-11T03:49:10.721Z,99156.16
2023-02-11T03:51:37.369Z,99152.66
2023-02-11T03:54:04.064Z,99155.25
2023-02-11T03:56:30.697Z,99155.31
2023-02-11T03:58:57.383Z,99145.72
2023-02-11T04:01:24.202Z,99153.78
2023-02-11T04:03:50.929Z,99152.66
2023-02-11T04:06:17.639Z,99151.84
2023-02-11T04:08:44.264Z,99151.41
2023-02-11T04:11:10.988Z,99149.53
2023-02-11T04:13:37.679Z,99150.50
2023-02-11T04:16:04.525Z,99154.41
2023-02-11T04:18:31.256Z,99147.09
2023-02-11T04:20:57.880Z,99146.69
2023-02-11T04:23:24.518Z,99146.09
2023-02-11T04:25:51.465Z,99143.19
2023-02-11T04:28:18.427Z,99129.63
2023-02-11T04:30:45.154Z,99130.66
2023-02-11T04:33:11.851Z,99131.72
2023-02-11T04:35:38.500Z,99129.72
2023-02-11T04:38:05.239Z,99129.78
2023-02-11T04:40:31.892Z,99121.44
2023-02-11T04:42:58.539Z,99121.97
2023-02-11T04:45:25.215Z,99118.34
2023-02-11T04:47:51.915Z,99116.94
2023-02-11T04:50:18.612Z,99103.91
2023-02-11T04:52:45.233Z,99109.22
2023-02-11T04:55:11.886Z,99110.03
2023-02-11T04:57:38.560Z,99101.28
2023-02-11T05:00:05.266Z,99095.13
2023-02-11T05:02:32.009Z,99094.78
2023-02-11T05:04:58.628Z,99095.44
2023-02-11T05:07:25.359Z,99095.22
2023-02-11T05:09:52.035Z,99097.50
2023-02-11T05:12:18.732Z,99099.22
2023-02-11T05:14:45.388Z,99092.53
2023-02-11T05:17:12.084Z,99093.38
2023-02-11T05:19:38.772Z,99088.47
2023-02-11T05:22:05.425Z,99098.47
2023-02-11T05:24:32.107Z,99097.00
2023-02-11T05:26:58.781Z,99091.22
2023-02-11T05:29:25.456Z,99090.94
2023-02-11T05:31:52.161Z,99092.69
2023-02-11T05:34:18.889Z,99090.41
2023-02-11T05:36:45.491Z,99096.03
2023-02-11T05:39:12.175Z,99091.56
2023-02-11T05:41:38.826Z,99095.75
2023-02-11T05:44:05.504Z,99090.75
2023-02-11T05:46:32.248Z,99096.88
2023-02-11T05:48:58.947Z,99093.88
2023-02-11T05:51:25.592Z,99093.25
2023-02-11T05:53:52.245Z,99088.50
2023-02-11T05:56:18.923Z,99088.75
2023-02-11T05:58:45.578Z,99083.66
2023-02-11T06:01:12.172Z,99089.44
2023-02-11T06:03:38.889Z,99090.53
2023-02-11T06:06:05.642Z,99090.88
2023-02-11T06:08:32.284Z,99093.59
2023-02-11T06:10:58.879Z,99083.22
2023-02-11T06:13:25.603Z,99082.94
2023-02-11T06:15:52.493Z,99085.78
2023-02-11T06:18:19.318Z,99075.59
2023-02-11T06:20:46.017Z,99074.06
2023-02-11T06:23:12.664Z,99076.78
2023-02-11T06:25:39.330Z,99081.75
2023-02-11T06:28:06.096Z,99070.78
2023-02-11T06:30:32.876Z,99086.78
2023-02-11T06:32:59.510Z,99075.69
2023-02-11T06:35:26.113Z,99075.78
2023-02-11T06:37:52.735Z,99074.03
2023-02-11T06:40:19.376Z,99070.16
2023-02-11T06:42:46.032Z,99066.31
2023-02-11T06:45:12.699Z,99074.66
2023-02-11T06:47:39.342Z,99069.66
2023-02-11T06:50:05.977Z,99081.34
2023-02-11T06:52:32.614Z,99073.91
2023-02-11T06:54:59.257Z,99076.19
2023-02-11T06:57:25.998Z,99069.50
2023-02-11T06:59:52.727Z,99072.69
2023-02-11T07:02:20.977Z,99067.91
2023-02-11T07:04:47.956Z,99062.63
2023-02-11T07:07:14.635Z,99063.16
2023-02-11T07:09:41.297Z,99067.97
2023-02-11T07:12:07.928Z,99064.81
2023-02-11T07:14:34.556Z,99061.84
2023-02-11T07:17:01.176Z,99065.03
2023-02-11T07:19:27.833Z,99069.94
2023-02-11T07:21:54.468Z,99070.44
2023-02-11T07:24:21.124Z,99072.72
2023-02-11T07:26:47.807Z,99070.28
2023-02-11T07:29:14.466Z,99060.63
2023-02-11T07:31:41.280Z,99058.47
2023-02-11T07:34:10.113Z,99071.41
2023-02-11T07:36:36.791Z,99079.56
2023-02-11T07:39:03.419Z,99073.47
2023-02-11T07:41:30.056Z,99078.50
2023-02-11T07:43:56.778Z,99069.44
2023-02-11T07:46:23.484Z,99065.97
2023-02-11T07:48:50.181Z,99064.47
2023-02-11T07:51:16.907Z,99072.81
2023-02-11T07:53:45.699Z,99076.16
2023-02-11T07:56:12.350Z,99057.69
2023-02-11T07:58:39.013Z,99055.19
2023-02-11T08:01:05.746Z,99055.38
2023-02-11T08:03:32.435Z,99053.72
2023-02-11T08:05:59.072Z,99045.03
2023-02-11T08:08:25.717Z,99055.78
2023-02-11T08:10:52.547Z,99063.75
2023-02-11T08:13:19.303Z,99057.09
2023-02-11T08:15:46.062Z,99060.59
2023-02-11T08:18:12.754Z,99061.53
2023-02-11T08:20:39.388Z,99068.59
2023-02-11T08:23:06.025Z,99059.56
2023-02-11T08:25:32.701Z,99062.81
2023-02-11T08:27:59.358Z,99048.91
2023-02-11T08:30:27.477Z,99052.72
2023-02-11T08:32:54.258Z,99054.78
2023-02-11T08:35:20.954Z,99052.25
2023-02-11T08:37:47.588Z,99053.34
2023-02-11T08:40:14.229Z,99051.22
2023-02-11T08:42:40.917Z,99044.19
2023-02-11T08:45:07.565Z,99047.47
2023-02-11T08:47:34.192Z,99042.94
2023-02-11T08:50:00.880Z,99039.75
2023-02-11T08:52:27.632Z,99044.47
2023-02-11T08:54:54.334Z,99044.56
2023-02-11T08:57:20.949Z,99039.91
2023-02-11T08:59:47.560Z,99048.44
2023-02-11T09:02:14.299Z,99035.03
2023-02-11T09:04:40.953Z,99039.13
2023-02-11T09:07:07.673Z,99029.75
2023-02-11T09:09:34.309Z,99024.78
2023-02-11T09:12:00.949Z,99021.75
2023-02-11T09:14:27.558Z,99025.88
2023-02-11T09:16:54.251Z,99028.66
2023-02-11T09:19:21.061Z,99022.88
2023-02-11T09:21:47.791Z,99018.53
2023-02-11T09:24:14.497Z,99027.44
2023-02-11T09:26:41.138Z,99024.63
2023-02-11T09:29:07.831Z,99017.97
2023-02-11T09:31:34.626Z,99015.72
2023-02-11T09:34:01.393Z,99011.22
2023-02-11T09:36:28.047Z,99008.88
2023-02-11T09:38:54.756Z,99003.56
2023-02-11T09:41:21.398Z,99004.88
2023-02-11T09:43:48.159Z,99002.19
2023-02-11T09:46:14.897Z,99005.66
2023-02-11T09:48:41.592Z,98992.09
2023-02-11T09:51:08.264Z,98986.66
2023-02-11T09:53:34.934Z,98993.44
2023-02-11T09:56:01.634Z,98983.34
2023-02-11T09:58:28.294Z,98985.97
2023-02-11T10:00:54.988Z,98985.19
2023-02-11T10:03:21.657Z,98968.53
2023-02-11T10:05:48.800Z,98979.09
2023-02-11T10:08:17.015Z,98977.69
2023-02-11T10:10:43.825Z,98971.94
2023-02-11T10:13:10.530Z,98975.50
2023-02-11T10:15:37.190Z,98967.53
2023-02-11T10:18:03.932Z,98972.75
2023-02-11T10:20:30.604Z,98969.69
2023-02-11T10:22:57.267Z,98971.03
2023-02-11T10:25:23.893Z,98964.94
2023-02-11T10:27:50.564Z,98961.63
2023-02-11T10:30:17.229Z,98954.78
2023-02-11T10:32:43.910Z,98944.56
2023-02-11T10:35:10.616Z,98936.56
2023-02-11T10:37:37.317Z,98926.44
2023-02-11T10:40:03.988Z,98925.22
2023-02-11T10:42:30.646Z,98916.72
2023-02-11T10:44:57.412Z,98918.16
2023-02-11T10:47:24.056Z,98917.50
2023-02-11T10:49:50.797Z,98917.44
2023-02-11T10:52:17.492Z,98919.97
2023-02-11T10:54:44.111Z,98909.53
2023-02-11T10:57:10.775Z,98913.25
2023-02-11T10:59:37.456Z,98907.94
2023-02-11T11:02:04.172Z,98900.19
2023-02-11T11:04:30.942Z,98899.72
2023-02-11T11:06:57.682Z,98889.66
2023-02-11T11:09:24.352Z,98900.94
2023-02-11T11:11:51.054Z,98893.81
2023-02-11T11:14:17.778Z,98886.06
2023-02-11T11:16:44.400Z,98886.13
2023-02-11T11:19:11.122Z,98880.31
2023-02-11T11:21:37.763Z,98883.22
2023-02-11T11:24:04.443Z,98877.25
2023-02-11T11:26:31.184Z,98870.84
2023-02-11T11:28:57.804Z,98862.75
2023-02-11T11:31:24.764Z,98858.63
2023-02-11T11:33:51.432Z,98855.75
2023-02-11T11:36:18.050Z,98859.09
2023-02-11T11:38:44.694Z,98850.13
2023-02-11T11:41:11.335Z,98845.75
2023-02-11T11:43:38.035Z,98832.16
2023-02-11T11:46:04.704Z,98833.91
2023-02-11T11:48:31.436Z,98826.25
2023-02-11T11:50:58.093Z,98829.78
2023-02-11T11:53:24.835Z,98832.97
2023-02-11T11:55:51.506Z,98828.94
2023-02-11T11:58:18.200Z,98831.94
2023-02-11T12:00:44.821Z,98828.41
2023-02-11T12:03:11.613Z,98814.16
2023-02-11T12:05:38.378Z,98816.03
2023-02-11T12:08:05.055Z,98807.41
2023-02-11T12:10:31.731Z,98799.63
2023-02-11T12:12:58.371Z,98796.84
2023-02-11T12:15:25.021Z,98788.84
2023-02-11T12:17:51.705Z,98780.06
2023-02-11T12:20:18.366Z,98770.63
2023-02-11T12:22:45.174Z,98778.56
2023-02-11T12:25:11.841Z,98777.03
2023-02-11T12:27:38.497Z,98773.94
2023-02-11T12:30:05.211Z,98767.44
2023-02-11T12:32:31.898Z,98771.28
2023-02-11T12:34:58.563Z,98762.69
2023-02-11T12:37:25.246Z,98749.38
2023-02-11T12:39:51.896Z,98750.72
2023-02-11T12:42:18.557Z,98748.09
2023-02-11T12:44:45.337Z,98753.16
2023-02-11T12:47:12.004Z,98750.41
2023-02-11T12:49:38.748Z,98745.91
2023-02-11T12:52:05.394Z,98735.22
2023-02-11T12:54:32.096Z,98722.00
2023-02-11T12:56:58.746Z,98723.84
2023-02-11T12:59:25.429Z,98724.34
2023-02-11T13:01:52.124Z,98719.88
2023-02-11T13:04:18.761Z,98708.19
2023-02-11T13:06:45.380Z,98708.75
2023-02-11T13:09:12.046Z,98701.59
2023-02-11T13:11:38.736Z,98699.84
2023-02-11T13:14:05.487Z,98691.81
2023-02-11T13:16:32.191Z,98695.38
2023-02-11T13:18:58.949Z,98692.72
2023-02-11T13:21:25.605Z,98696.13
2023-02-11T13:23:52.314Z,98682.47
2023-02-11T13:26:19.018Z,98671.25
2023-02-11T13:28:45.705Z,98680.44
2023-02-11T13:31:12.589Z,98681.16
2023-02-11T13:33:39.396Z,98681.16
2023-02-11T13:36:06.142Z,98678.75
2023-02-11T13:38:32.835Z,98690.22
2023-02-11T13:40:59.535Z,98689.16
2023-02-11T13:43:26.204Z,98684.81
2023-02-11T13:45:52.937Z,98680.38
2023-02-11T13:48:19.755Z,98681.91
2023-02-11T13:50:46.547Z,98672.09
2023-02-11T13:53:15.926Z,98676.38
2023-02-11T13:55:42.723Z,98680.00
2023-02-11T13:58:09.398Z,98694.31
2023-02-11T14:00:36.119Z,98686.66
2023-02-11T14:03:02.756Z,98690.06
2023-02-11T14:05:29.398Z,98687.97
2023-02-11T14:07:55.989Z,98676.47
2023-02-11T14:10:22.790Z,98674.72
2023-02-11T14:12:49.523Z,98685.16
2023-02-11T14:15:16.241Z,98689.50
2023-02-11T14:17:42.912Z,98695.69
2023-02-11T14:20:09.535Z,98691.44
2023-02-11T14:22:36.181Z,98694.03
2023-02-11T14:25:02.823Z,98687.28
2023-02-11T14:27:29.480Z,98682.00
2023-02-11T14:29:56.129Z,98684.84
2023-02-11T14:32:23.057Z,98684.19
2023-02-11T14:34:49.664Z,98690.19
2023-02-11T14:37:16.453Z,98679.53
2023-02-11T14:39:43.106Z,98688.19
2023-02-11T14:42:09.740Z,98690.78
2023-02-11T14:44:36.408Z,98676.09
2023-02-11T14:47:03.106Z,98681.72
2023-02-11T14:49:29.735Z,98683.88
2023-02-11T14:51:56.448Z,98685.38
2023-02-11T14:54:23.060Z,98679.28
2023-02-11T14:56:49.699Z,98687.31
2023-02-11T14:59:16.416Z,98686.59
2023-02-11T15:01:43.148Z,98680.97
2023-02-11T15:04:09.816Z,98675.53
2023-02-11T15:06:36.515Z,98676.72
2023-02-11T15:09:03.132Z,98676.19
2023-02-11T15:11:29.753Z,98682.47
2023-02-11T15:13:56.408Z,98676.69
2023-02-11T15:16:23.161Z,98670.63
2023-02-11T15:18:49.970Z,98672.78
2023-02-11T15:21:16.589Z,98669.94
2023-02-11T15:23:43.381Z,98670.94
2023-02-11T15:26:10.005Z,98673.25
2023-02-11T15:28:36.797Z,98680.03
2023-02-11T15:31:03.616Z,98677.78
2023-02-11T15:33:30.322Z,98682.78
2023-02-11T15:35:57.010Z,98690.88
2023-02-11T15:38:23.730Z,98689.72
2023-02-11T15:40:50.650Z,98691.06
2023-02-11T15:43:17.470Z,98684.84
2023-02-11T15:45:44.125Z,98701.16
2023-02-11T15:48:10.754Z,98693.25
2023-02-11T15:50:37.407Z,98687.34
2023-02-11T15:53:04.236Z,98692.59
2023-02-11T15:55:30.899Z,98691.31
2023-02-11T15:57:57.569Z,98696.03
2023-02-11T16:00:24.267Z,98703.78
2023-02-11T16:02:50.960Z,98692.75
2023-02-11T16:05:17.729Z,98692.00
2023-02-11T16:07:44.432Z,98701.91
2023-02-11T16:10:11.112Z,98703.09
2023-02-11T16:12:37.794Z,98695.72
2023-02-11T16:15:04.489Z,98697.38
2023-02-11T16:17:31.266Z,98695.16
2023-02-11T16:19:57.918Z,98702.34
2023-02-11T16:22:24.563Z,98700.78
2023-02-11T16:24:51.325Z,98706.22
2023-02-11T16:27:17.950Z,98702.50
2023-02-11T16:29:44.614Z,98710.31
2023-02-11T16:32:11.222Z,98711.31
2023-02-11T16:34:37.916Z,98700.31
2023-02-11T16:37:04.561Z,98700.78
2023-02-11T16:39:31.239Z,98701.16
2023-02-11T16:41:57.893Z,98705.06
2023-02-11T16:44:24.485Z,98705.00
2023-02-11T16:46:51.256Z,98707.06
2023-02-11T16:49:17.942Z,98705.47
2023-02-11T16:51:44.590Z,98698.66
2023-02-11T16:54:13.153Z,98692.84
2023-02-11T16:56:39.821Z,98692.28
2023-02-11T16:59:06.513Z,98688.00
2023-02-11T17:01:33.209Z,98694.03
2023-02-11T17:03:59.905Z,98699.78
2023-02-11T17:06:26.589Z,98695.63
2023-02-11T17:08:53.212Z,98688.81
2023-02-11T17:11:19.884Z,98684.72
2023-02-11T17:13:46.547Z,98681.47
2023-02-11T17:16:13.303Z,98677.59
2023-02-11T17:18:39.956Z,98676.81
2023-02-11T17:21:06.639Z,98669.50
2023-02-11T17:23:33.303Z,98663.28
2023-02-11T17:25:59.964Z,98675.03
2023-02-11T17:28:26.663Z,98671.84
2023-02-11T17:30:53.335Z,98673.22
2023-02-11T17:33:19.980Z,98673.63
2023-02-11T17:35:46.583Z,98685.88
2023-02-11T17:38:13.263Z,98691.94
2023-02-11T17:40:39.965Z,98699.63
2023-02-11T17:43:06.594Z,98700.66
2023-02-11T17:45:33.312Z,98705.16
2023-02-11T17:47:59.990Z,98695.69
2023-02-11T17:50:29.174Z,98691.91
2023-02-11T17:52:56.183Z,98694.19
2023-02-11T17:55:22.884Z,98706.31
2023-02-11T17:57:49.501Z,98703.84
2023-02-11T18:00:16.210Z,98699.63
2023-02-11T18:02:42.932Z,98696.63
2023-02-11T18:05:09.602Z,98693.69
2023-02-11T18:07:36.217Z,98705.44
2023-02-11T18:10:02.865Z,98717.13
2023-02-11T18:12:29.611Z,98716.22
2023-02-11T18:14:58.056Z,98712.00
2023-02-11T18:17:24.976Z,98717.59
2023-02-11T18:19:51.672Z,98718.31
2023-02-11T18:22:18.342Z,98712.25
2023-02-11T18:24:44.955Z,98707.34
2023-02-11T18:27:11.638Z,98710.50
2023-02-11T18:29:38.377Z,98712.25
2023-02-11T18:32:05.129Z,98699.56
2023-02-11T18:34:31.859Z,98702.84
2023-02-11T18:36:58.453Z,98704.00
2023-02-11T18:39:25.172Z,98703.50
2023-02-11T18:41:51.812Z,98707.91
2023-02-11T18:44:18.471Z,98697.09
2023-02-11T18:46:45.178Z,98702.66
2023-02-11T18:49:11.860Z,98718.22
2023-02-11T18:51:38.474Z,98721.09
2023-02-11T18:54:05.162Z,98732.03
2023-02-11T18:56:31.872Z,98728.09
2023-02-11T18:58:58.559Z,98725.47
2023-02-11T19:01:28.579Z,98723.47
2023-02-11T19:03:58.507Z,98722.66
2023-02-11T19:06:25.410Z,98720.91
2023-02-11T19:08:52.057Z,98724.47
2023-02-11T19:11:18.751Z,98730.81
2023-02-11T19:13:45.397Z,98738.06
2023-02-11T19:16:12.082Z,98739.28
2023-02-11T19:18:38.866Z,98737.41
2023-02-11T19:21:05.589Z,98751.00
2023-02-11T19:23:32.229Z,98757.63
2023-02-11T19:25:58.942Z,98766.28
2023-02-11T19:28:25.646Z,98756.44
2023-02-11T19:30:52.450Z,98757.06
2023-02-11T19:33:19.199Z,98751.22
2023-02-11T19:35:45.860Z,98752.78
2023-02-11T19:38:12.545Z,98756.47
2023-02-11T19:40:39.216Z,98756.56
2023-02-11T19:43:05.830Z,98752.31
2023-02-11T19:45:32.528Z,98761.28
2023-02-11T19:47:59.249Z,98765.59
2023-02-11T19:50:25.873Z,98756.34
2023-02-11T19:52:52.471Z,98756.38
2023-02-11T19:55:19.135Z,98750.91
2023-02-11T19:57:45.786Z,98753.88
2023-02-11T20:00:12.399Z,98755.50
2023-02-11T20:02:39.043Z,98757.28
2023-02-11T20:05:05.774Z,98759.69
2023-02-11T20:07:32.384Z,98766.00
2023-02-11T20:09:59.076Z,98763.56
2023-02-11T20:12:25.729Z,98753.91
2023-02-11T20:14:52.399Z,98750.00
2023-02-11T20:17:19.112Z,98762.72
2023-02-11T20:19:45.727Z,98754.75
2023-02-11T20:22:12.408Z,98745.19
2023-02-11T20:24:39.073Z,98753.84
2023-02-11T20:27:05.683Z,98756.56
2023-02-11T20:29:32.378Z,98759.16
2023-02-11T20:31:59.157Z,98762.00
2023-02-11T20:34:25.931Z,98758.41
2023-02-11T20:36:52.648Z,98763.03
2023-02-11T20:39:19.348Z,98760.22
2023-02-11T20:41:46.107Z,98765.22
2023-02-11T20:44:12.979Z,98763.25
2023-02-11T20:46:39.735Z,98761.72
2023-02-11T20:49:06.414Z,98770.25
2023-02-11T20:51:33.090Z,98764.19
2023-02-11T20:53:59.794Z,98764.56
2023-02-11T20:56:26.530Z,98757.34
2023-02-11T20:58:53.212Z,98757.84
2023-02-11T21:01:19.889Z,98746.47
2023-02-11T21:03:46.550Z,98754.13
2023-02-11T21:06:13.230Z,98752.25
2023-02-11T21:08:39.873Z,98749.91
2023-02-11T21:11:06.498Z,98747.22
2023-02-11T21:13:33.180Z,98755.25
2023-02-11T21:15:59.891Z,98746.38
2023-02-11T21:18:26.977Z,98739.03
2023-02-11T21:20:53.686Z,98742.50
2023-02-11T21:23:20.357Z,98736.06
2023-02-11T21:25:46.998Z,98749.38
2023-02-11T21:28:13.726Z,98742.22
2023-02-11T21:30:40.453Z,98747.88
2023-02-11T21:33:07.120Z,98742.69
2023-02-11T21:35:33.802Z,98744.13
2023-02-11T21:38:00.474Z,98762.59
2023-02-11T21:40:27.109Z,98760.50
2023-02-11T21:42:53.736Z,98759.91
2023-02-11T21:45:20.428Z,98762.69
2023-02-11T21:47:47.069Z,98762.88
2023-02-11T21:50:13.742Z,98769.91
2023-02-11T21:52:40.385Z,98767.63
2023-02-11T21:55:07.077Z,98767.06
2023-02-11T21:57:33.736Z,98770.09
2023-02-11T22:00:00.408Z,98766.41
2023-02-11T22:02:27.131Z,98770.28
2023-02-11T22:04:53.862Z,98779.81
2023-02-11T22:07:20.508Z,98776.97
2023-02-11T22:09:47.108Z,98777.50
2023-02-11T22:12:13.771Z,98780.88
2023-02-11T22:14:40.451Z,98782.31
2023-02-11T22:17:07.180Z,98783.28
2023-02-11T22:19:33.869Z,98789.44
2023-02-11T22:22:00.574Z,98782.31
2023-02-11T22:24:27.206Z,98792.06
2023-02-11T22:26:53.840Z,98793.09
2023-02-11T22:29:20.468Z,98797.41
2023-02-11T22:31:47.135Z,98781.13
2023-02-11T22:34:13.831Z,98786.03
2023-02-11T22:36:40.445Z,98792.72
2023-02-11T22:39:07.095Z,98784.47
2023-02-11T22:41:33.747Z,98797.25
2023-02-11T22:44:00.381Z,98799.63
2023-02-11T22:46:27.083Z,98803.13
2023-02-11T22:48:53.804Z,98801.91
2023-02-11T22:51:20.433Z,98791.38
2023-02-11T22:53:47.076Z,98793.69
2023-02-11T22:56:15.691Z,98788.50
2023-02-11T22:58:42.617Z,98804.78
2023-02-11T23:01:09.259Z,98795.84
2023-02-11T23:03:35.964Z,98787.81
2023-02-11T23:06:02.607Z,98782.66
2023-02-11T23:08:29.240Z,98781.19
2023-02-11T23:10:55.920Z,98770.38
2023-02-11T23:13:22.561Z,98783.66
2023-02-11T23:15:49.208Z,98798.03
2023-02-11T23:18:15.854Z,98793.78
2023-02-11T23:20:42.469Z,98791.84
2023-02-11T23:23:09.135Z,98788.09
2023-02-11T23:25:35.817Z,98790.28
2023-02-11T23:28:02.564Z,98791.97
2023-02-11T23:30:29.249Z,98800.41
2023-02-11T23:32:56.016Z,98804.69
2023-02-11T23:35:22.682Z,98800.09
2023-02-11T23:37:49.389Z,98812.81
2023-02-11T23:40:16.066Z,98817.03
2023-02-11T23:42:42.702Z,98823.50
2023-02-11T23:45:09.372Z,98825.19
2023-02-11T23:47:36.045Z,98822.16
2023-02-11T23:50:02.685Z,98833.59
2023-02-11T23:52:29.278Z,98839.41
2023-02-11T23:54:55.966Z,98840.31
2023-02-11T23:57:22.611Z,98840.69
2023-02-11T23:59:49.232Z,98848.34
